• Join FlightAware (Why Join?)
  • Login
  • US Flag 
06:55AM EST


 

Airport Tracker/Info


-or-


 

Live Flight TrackerFlight Track Log ✈ RPA3436 ✈ 11-Jul-2013 ✈ KCHS - KDCA

Flight Track Log - Related Links

Times and Time Zones

All times are in EDT time to prevent confusion due to time zone crossing. See the RPA3436 flight status page for this flight to view local times or setup timezone preferences in your user account.

Time Position Orientation Groundspeed Altitude Reporting Facility
EDT Latitude Longitude Course Direction KTS MPH feet Rate Location/Type
07:52AM 32.9014 -79.9928 13° North 257 296 3,900  Level Jacksonville Center
07:53AM 33.1540 -79.9500 North  Level FlightAware Approximate
07:53AM 32.9806 -79.9781 North 267 307 6,800  Level Jacksonville Center
07:54AM 33.2455 -79.9276 North  Level FlightAware Approximate
07:54AM 33.0719 -79.9578 11° North 291 335 10,000  Level Jacksonville Center
07:55AM 33.3355 -79.8989 23° Northeast  Level FlightAware Approximate
07:55AM 33.1592 -79.9425 North 305 351 12,400  Level Jacksonville Center
07:56AM 33.4259 -79.8715 North  Level FlightAware Approximate
07:56AM 33.2506 -79.9219 11° North 321 369 14,900  Level Jacksonville Center
07:57AM 33.5174 -79.8474 13° North  Level FlightAware Approximate
07:57AM 33.3439 -79.9039 North 327 376 17,200  Level Jacksonville Center
07:58AM 33.6086 -79.8214 13° North  Level FlightAware Approximate
07:58AM 33.4375 -79.8833 10° North 332 382 18,900  Level Jacksonville Center
07:59AM 33.5369 -79.8550 13° North 343 395 20,900 1,050 Climbing Jacksonville Center
08:00AM 33.6364 -79.8267 13° North 354 407 21,000 50 Climbing Jacksonville Center
08:01AM 33.7358 -79.8008 12° North 354 407 21,000 750 Level Jacksonville Center
08:02AM 33.8353 -79.7722 13° North 354 407 22,500 1,600 Climbing Jacksonville Center
08:03AM 33.9169 -79.6919 39° Northeast 354 407 24,200 1,700 Climbing Jacksonville Center
08:04AM 33.9939 -79.6014 44° Northeast 367 422 25,900 1,500 Climbing Jacksonville Center
08:05AM 34.0664 -79.5058 47° Northeast 377 434 27,200 921 Climbing Jacksonville Center
08:08AM 34.2375 -79.2972 45° Northeast 379 436 29,000 540 Climbing Washington Center
08:09AM 34.3444 -79.2164 32° Northeast 399 459 29,000  Level Washington Center
08:10AM 34.4503 -79.1581 24° Northeast 404 465 29,000  Level Washington Center
08:11AM 34.5522 -79.0994 25° Northeast 404 465 29,000  Level Washington Center
08:12AM 34.6542 -79.0408 25° Northeast 399 459 29,000  Level Washington Center
08:13AM 34.7581 -78.9819 25° Northeast 399 459 29,000  Level Washington Center
08:14AM 34.8642 -78.9181 26° Northeast 409 471 29,000  Level Washington Center
08:15AM 34.9661 -78.8589 25° Northeast 409 471 29,000  Level Washington Center
08:16AM 35.0911 -78.7853 26° Northeast 409 471 29,000  Level Washington Center
08:17AM 35.1950 -78.7233 26° Northeast 409 471 29,000  Level Washington Center
08:18AM 35.2986 -78.6636 25° Northeast 409 471 29,000  Level Washington Center
08:19AM 35.4047 -78.6017 25° Northeast 417 480 29,000 -397 Level Washington Center
08:20AM 35.5000 -78.5464 25° Northeast 412 474 28,200 -1,000 Descending Washington Center
08:21AM 35.5911 -78.4911 26° Northeast 412 474 27,000 -610 Descending Washington Center
08:22AM 35.7117 -78.4186 26° Northeast 412 474 27,000  Level Washington Center
08:23AM 35.8217 -78.3536 26° Northeast 419 482 27,000  Level Washington Center
08:24AM 35.9381 -78.2831 26° Northeast 439 505 27,000  Level Washington Center
08:25AM 36.0333 -78.2272 25° Northeast 449 517 27,000  Level Washington Center
08:26AM 36.1706 -78.1444 26° Northeast 449 517 27,000  Level Washington Center
08:27AM 36.2869 -78.0761 25° Northeast 454 522 27,000  Level Washington Center
08:28AM 36.4053 -78.0022 27° Northeast 454 522 27,000  Level Washington Center
08:29AM 36.5214 -77.9311 26° Northeast 454 522 27,000 -397 Level Washington Center
08:30AM 36.6375 -77.8594 26° Northeast 459 528 26,200 -1,180 Descending Washington Center
08:31AM 36.7472 -77.7953 25° Northeast 448 516 24,600 -1,513 Descending Washington Center
08:32AM 36.8508 -77.8267 346° North 385 443 23,200 -1,311 Descending Washington Center
08:33AM 36.9389 -77.9097 323° Northwest 364 419 22,000 -537 Descending Washington Center
08:34AM 37.0303 -77.9358 347° North 358 412 22,000  Level Washington Center
08:35AM 37.1264 -77.8192 44° Northeast 327 376 22,000  Level Washington Center
08:36AM 37.2097 -77.7094 46° Northeast 396 456 22,000 -496 Level Washington Center
08:37AM 37.2931 -77.5967 47° Northeast 409 471 21,000 -504 Descending Washington Center
08:38AM 37.3761 -77.4867 46° Northeast 422 486 21,000  Level Washington Center
08:39AM 37.4614 -77.3761 46° Northeast 428 493 21,000  Level Washington Center
08:40AM 37.5644 -77.3078 28° Northeast 428 493 21,000 -295 Level Washington Center
08:41AM 37.6817 -77.2842 North 405 466 20,400 -1,361 Descending Washington Center
08:42AM 37.7967 -77.2581 10° North 412 474 18,300 -2,000 Descending Washington Center
08:43AM 37.9053 -77.2444 North 407 468 16,400 -1,672 Descending Washington Center
08:44AM 38.0114 -77.2628 352° North 391 450 14,900 -1,424 Descending Washington Center
08:45AM 38.1092 -77.2886 348° North 377 434 13,600 -1,271 Descending Washington Center
08:46AM 38.2028 -77.3014 354° North 355 409 12,400 -1,041 Descending Washington Center
08:47AM 38.2847 -77.2556 24° Northeast 327 376 11,500 -942 Descending Washington Center
08:48AM 38.3586 -77.1936 33° Northeast 316 364 10,500 -1,240 Descending Washington Center
08:49AM 38.4014 -77.0992 60° Northeast 299 344 9,000 -1,537 Descending Washington Center
08:50AM 38.4567 -77.0286 45° Northeast 292 336 7,400 -1,525 Descending Washington Center
08:51AM 38.5278 -77.0089 12° North 261 300 6,000 -1,059 Descending Washington Center
08:52AM 38.5903 -77.0153 355° North 235 270 5,300 -1,220 Descending Washington Center
08:53AM 38.6500 -77.0167 359° North 197 227 3,600 -1,358 Descending Potomac TRACON
08:54AM 38.7000 -77.0167 360° North 186 214 2,900 -857 Descending Potomac TRACON